Nearby METAR Reports

 

KHOT - Hot Springs, Arkansas, USA
Distance from station: W 8mi, 14km
Updated: 12/05/2021 11:04am
Overcast
Overcast
 Wind from SW
Wind: SW 10 mph , 17 km/h
Temperature: 68°F , 20°C
Dew Point: 64°F , 18°C
Humidity: 88%
Barometer: 29.94 inHg , 1013.9 hPa
Clouds: Overcast
Visibility: 8 miles , 13 km
Cloud details: Overcast 1100 ft
2021/12/05 17:04 KHOT 051704Z AUTO 22009KT 8SM OVC011 20/18 A2994 RMK AO2 T02000183
KMWT - Mount Ida, Arkansas, USA
Distance from station: W 36mi, 58km
Updated: 12/05/2021 11:18am
Overcast
Overcast
 Wind from varies
Wind: varies 3 mph , 6 km/h
Temperature: 68°F , 20°C
Dew Point: 63°F , 17°C
Humidity: 83%
Barometer: 29.90 inHg , 1012.5 hPa
Clouds: Overcast
Visibility: 10 miles , 16 km
Cloud details: Partly cloudy 1500 ft
Mostly cloudy 2000 ft
Overcast 2800 ft
2021/12/05 17:18 KMWT 051718Z AUTO VRB03KT 10SM SCT015 BKN020 OVC028 20/17 A2990 RMK AO2 T02000172
 
KLIT - Little Rock, Arkansas, USA
Distance from station: ENE 45mi, 73km
Updated: 12/05/2021 10:53am
Overcast
Overcast
 Wind from SSW
Wind: SSW 13 mph , 20 km/h
Temperature: 70°F , 21°C
Dew Point: 64°F , 18°C
Humidity: 83%
Barometer: 29.94 inHg , 1013.9 hPa
Clouds: Overcast
Visibility: 7 miles , 11 km
Cloud details: Mostly cloudy 900 ft
Overcast 1400 ft
2021/12/05 16:53 KLIT 051653Z 21011KT 7SM BKN009 OVC014 21/18 A2994 RMK AO2 SLP141 T02060183
KLRF - Little Rock Afb, Arkansas, USA
Distance from station: NE 56mi, 89km
Updated: 12/05/2021 11:06am
Mist, Overcast
Mist, Overcast
 Wind from calm
Wind: Calm
Temperature: 63°F , 17°C
Dew Point: 63°F , 17°C
Humidity: 100%
Barometer: 29.92 inHg , 1013.2 hPa
Summary: Mist
Clouds: Overcast
Visibility: 3 miles , 5 km
Cloud details: Overcast 200 ft
2021/12/05 17:06 KLRF 051706Z AUTO 00000KT 3SM BR OVC002 17/17 A2992 RMK AO2 SLP134 $